createdAt,value
2018-06-22T00:00:35.023Z,101812.85
2018-06-22T00:03:04.125Z,101803.25
2018-06-22T00:05:33.185Z,101802.38
2018-06-22T00:08:02.222Z,101802.34
2018-06-22T00:10:31.330Z,101804.30
2018-06-22T00:13:00.377Z,101809.56
2018-06-22T00:15:29.437Z,101809.16
2018-06-22T00:17:58.513Z,101799.53
2018-06-22T00:20:27.561Z,101794.38
2018-06-22T00:22:56.609Z,101791.59
2018-06-22T00:25:25.868Z,101797.80
2018-06-22T00:27:54.945Z,101787.34
2018-06-22T00:30:23.997Z,101787.23
2018-06-22T00:32:53.084Z,101788.18
2018-06-22T00:35:22.189Z,101790.51
2018-06-22T00:37:51.286Z,101778.87
2018-06-22T00:40:20.350Z,101781.34
2018-06-22T00:42:49.405Z,101783.30
2018-06-22T00:45:18.465Z,101768.02
2018-06-22T00:47:47.845Z,101764.73
2018-06-22T00:50:16.906Z,101770.50
2018-06-22T00:52:45.973Z,101770.88
2018-06-22T00:55:15.013Z,101777.56
2018-06-22T00:57:44.104Z,101772.33
2018-06-22T01:00:13.161Z,101769.55
2018-06-22T01:02:42.233Z,101773.71
2018-06-22T01:05:11.313Z,101765.89
2018-06-22T01:07:40.401Z,101765.52
2018-06-22T01:10:09.449Z,101766.38
2018-06-22T01:12:38.605Z,101766.52
2018-06-22T01:15:07.688Z,101758.73
2018-06-22T01:17:36.817Z,101761.86
2018-06-22T01:20:05.953Z,101758.57
2018-06-22T01:22:34.941Z,101761.63
2018-06-22T01:25:04.033Z,101754.30
2018-06-22T01:27:33.086Z,101754.66
2018-06-22T01:30:02.146Z,101755.59
2018-06-22T01:32:31.231Z,101748.61
2018-06-22T01:35:00.305Z,101758.16
2018-06-22T01:37:29.409Z,101750.89
2018-06-22T01:39:58.481Z,101750.41
2018-06-22T01:42:27.573Z,101762.95
2018-06-22T01:44:56.653Z,101748.16
2018-06-22T01:47:25.757Z,101756.83
2018-06-22T01:49:54.837Z,101753.28
2018-06-22T01:52:23.969Z,101750.63
2018-06-22T01:54:53.083Z,101748.81
2018-06-22T01:57:22.165Z,101755.73
2018-06-22T01:59:51.293Z,101753.69
2018-06-22T02:02:20.429Z,101754.11
2018-06-22T02:04:49.533Z,101745.31
2018-06-22T02:07:18.613Z,101750.51
2018-06-22T02:09:47.717Z,101756.88
2018-06-22T02:12:16.793Z,101753.18
2018-06-22T02:14:46.998Z,101754.14
2018-06-22T02:17:16.097Z,101754.05
2018-06-22T02:19:45.173Z,101764.76
2018-06-22T02:22:14.282Z,101760.30
2018-06-22T02:24:43.408Z,101755.02
2018-06-22T02:27:12.545Z,101753.16
2018-06-22T02:29:41.612Z,101754.03
2018-06-22T02:32:10.694Z,101750.43
2018-06-22T02:34:39.773Z,101752.81
2018-06-22T02:37:08.881Z,101754.22
2018-06-22T02:39:38.039Z,101761.06
2018-06-22T02:42:07.104Z,101748.47
2018-06-22T02:44:36.220Z,101747.07
2018-06-22T02:47:05.478Z,101750.16
2018-06-22T02:49:34.589Z,101743.27
2018-06-22T02:52:03.709Z,101742.00
2018-06-22T02:54:32.821Z,101746.39
2018-06-22T02:57:01.963Z,101745.04
2018-06-22T02:59:31.061Z,101747.27
2018-06-22T03:02:00.172Z,101750.15
2018-06-22T03:04:29.285Z,101749.77
2018-06-22T03:06:58.373Z,101748.14
2018-06-22T03:09:27.490Z,101749.72
2018-06-22T03:11:56.586Z,101750.63
2018-06-22T03:14:25.679Z,101752.10
2018-06-22T03:16:54.841Z,101745.99
2018-06-22T03:19:24.000Z,101753.47
2018-06-22T03:21:53.113Z,101748.22
2018-06-22T03:24:22.193Z,101748.14
2018-06-22T03:26:51.298Z,101748.95
2018-06-22T03:29:20.381Z,101743.83
2018-06-22T03:31:49.483Z,101750.80
2018-06-22T03:34:18.590Z,101748.59
2018-06-22T03:36:47.685Z,101744.52
2018-06-22T03:39:16.757Z,101744.55
2018-06-22T03:41:45.849Z,101733.70
2018-06-22T03:44:14.974Z,101733.23
2018-06-22T03:46:44.073Z,101736.20
2018-06-22T03:49:13.179Z,101723.10
2018-06-22T03:51:42.297Z,101731.33
2018-06-22T03:54:11.385Z,101724.51
2018-06-22T03:56:40.534Z,101729.19
2018-06-22T03:59:09.621Z,101721.34
2018-06-22T04:01:38.736Z,101723.86
2018-06-22T04:04:08.101Z,101725.80
2018-06-22T04:06:37.227Z,101726.97
2018-06-22T04:09:06.970Z,101718.25
2018-06-22T04:11:36.075Z,101711.43
2018-06-22T04:14:05.199Z,101714.44
2018-06-22T04:16:34.311Z,101705.30
2018-06-22T04:19:03.469Z,101710.86
2018-06-22T04:21:32.569Z,101703.45
2018-06-22T04:24:01.698Z,101711.79
2018-06-22T04:26:30.769Z,101702.13
2018-06-22T04:28:59.852Z,101711.33
2018-06-22T04:31:28.945Z,101699.25
2018-06-22T04:33:58.055Z,101703.45
2018-06-22T04:36:27.153Z,101709.52
2018-06-22T04:38:56.297Z,101702.71
2018-06-22T04:41:25.715Z,101704.23
2018-06-22T04:43:54.802Z,101699.75
2018-06-22T04:46:23.945Z,101706.16
2018-06-22T04:48:53.062Z,101699.23
2018-06-22T04:51:22.153Z,101701.94
2018-06-22T04:53:51.258Z,101713.19
2018-06-22T04:56:20.400Z,101700.98
2018-06-22T04:58:49.441Z,101695.82
2018-06-22T05:01:19.215Z,101712.39
2018-06-22T05:03:48.337Z,101714.47
2018-06-22T05:06:17.429Z,101712.87
2018-06-22T05:08:46.541Z,101701.95
2018-06-22T05:11:15.655Z,101709.42
2018-06-22T05:13:44.821Z,101716.04
2018-06-22T05:16:13.918Z,101722.94
2018-06-22T05:18:43.034Z,101720.38
2018-06-22T05:21:12.107Z,101719.58
2018-06-22T05:23:41.197Z,101727.03
2018-06-22T05:26:10.278Z,101734.04
2018-06-22T05:28:39.365Z,101750.56
2018-06-22T05:31:08.457Z,101736.19
2018-06-22T05:33:37.532Z,101735.41
2018-06-22T05:36:06.644Z,101745.37
2018-06-22T05:38:35.745Z,101743.22
2018-06-22T05:41:04.840Z,101736.70
2018-06-22T05:43:33.916Z,101750.12
2018-06-22T05:46:03.021Z,101746.70
2018-06-22T05:48:32.122Z,101750.16
2018-06-22T05:51:01.313Z,101745.48
2018-06-22T05:53:30.414Z,101755.89
2018-06-22T05:55:59.525Z,101750.23
2018-06-22T05:58:28.653Z,101746.78
2018-06-22T06:00:57.773Z,101757.23
2018-06-22T06:03:26.865Z,101749.77
2018-06-22T06:05:56.015Z,101750.67
2018-06-22T06:08:25.113Z,101744.19
2018-06-22T06:10:54.194Z,101753.70
2018-06-22T06:13:23.295Z,101748.56
2018-06-22T06:15:52.481Z,101754.63
2018-06-22T06:18:21.571Z,101745.52
2018-06-22T06:20:50.722Z,101743.27
2018-06-22T06:23:19.822Z,101741.20
2018-06-22T06:25:48.950Z,101744.23
2018-06-22T06:28:18.021Z,101749.89
2018-06-22T06:30:47.109Z,101765.98
2018-06-22T06:33:16.226Z,101768.48
2018-06-22T06:35:45.349Z,101763.73
2018-06-22T06:38:14.438Z,101763.39
2018-06-22T06:40:43.548Z,101767.76
2018-06-22T06:43:12.829Z,101760.84
2018-06-22T06:45:41.910Z,101765.58
2018-06-22T06:48:11.017Z,101766.40
2018-06-22T06:50:40.105Z,101761.23
2018-06-22T06:53:09.197Z,101766.98
2018-06-22T06:55:38.285Z,101757.38
2018-06-22T06:58:07.358Z,101761.79
2018-06-22T07:00:36.465Z,101760.86
2018-06-22T07:03:06.130Z,101769.97
2018-06-22T07:05:35.231Z,101767.33
2018-06-22T07:08:04.305Z,101756.53
2018-06-22T07:10:33.445Z,101765.25
2018-06-22T07:13:02.561Z,101766.11
2018-06-22T07:15:36.060Z,101764.45
2018-06-22T07:18:05.186Z,101765.75
2018-06-22T07:20:34.373Z,101777.86
2018-06-22T07:23:03.507Z,101775.64
2018-06-22T07:25:32.616Z,101787.00
2018-06-22T07:28:01.744Z,101777.92
2018-06-22T07:30:30.860Z,101791.88
2018-06-22T07:32:59.977Z,101781.83
2018-06-22T07:35:29.117Z,101778.35
2018-06-22T07:37:58.259Z,101776.61
2018-06-22T07:40:27.366Z,101779.27
2018-06-22T07:42:56.497Z,101785.69
2018-06-22T07:45:25.586Z,101785.73
2018-06-22T07:47:54.662Z,101777.51
2018-06-22T07:50:23.765Z,101792.28
2018-06-22T07:52:52.858Z,101788.36
2018-06-22T07:55:21.957Z,101773.98
2018-06-22T07:57:51.062Z,101783.58
2018-06-22T08:00:20.186Z,101790.00
2018-06-22T08:02:49.302Z,101788.72
2018-06-22T08:05:18.420Z,101779.22
2018-06-22T08:07:47.497Z,101785.34
2018-06-22T08:10:16.569Z,101788.45
2018-06-22T08:12:45.708Z,101789.30
2018-06-22T08:15:14.802Z,101789.30
2018-06-22T08:17:44.260Z,101782.34
2018-06-22T08:20:13.253Z,101786.70
2018-06-22T08:22:42.349Z,101788.86
2018-06-22T08:25:11.431Z,101785.34
2018-06-22T08:27:40.536Z,101781.88
2018-06-22T08:30:09.663Z,101790.61
2018-06-22T08:32:38.742Z,101782.77
2018-06-22T08:35:07.833Z,101774.05
2018-06-22T08:37:36.959Z,101777.08
2018-06-22T08:40:06.089Z,101788.41
2018-06-22T08:42:35.226Z,101787.98
2018-06-22T08:45:04.387Z,101787.10
2018-06-22T08:47:33.513Z,101783.20
2018-06-22T08:50:02.625Z,101782.30
2018-06-22T08:52:31.725Z,101801.47
2018-06-22T08:55:00.906Z,101793.64
2018-06-22T08:57:30.031Z,101796.71
2018-06-22T08:59:59.128Z,101793.63
2018-06-22T09:02:28.290Z,101808.48
2018-06-22T09:04:57.381Z,101806.73
2018-06-22T09:07:26.553Z,101805.41
2018-06-22T09:09:55.642Z,101806.29
2018-06-22T09:12:24.742Z,101822.41
2018-06-22T09:14:53.833Z,101815.88
2018-06-22T09:17:22.917Z,101818.92
2018-06-22T09:19:52.014Z,101800.63
2018-06-22T09:22:21.093Z,101810.56
2018-06-22T09:24:50.201Z,101808.00
2018-06-22T09:27:19.373Z,101815.84
2018-06-22T09:29:48.501Z,101817.58
2018-06-22T09:32:17.590Z,101810.64
2018-06-22T09:34:46.693Z,101819.72
2018-06-22T09:37:15.794Z,101821.96
2018-06-22T09:39:44.875Z,101823.73
2018-06-22T09:42:13.965Z,101819.80
2018-06-22T09:44:43.066Z,101828.92
2018-06-22T09:47:12.186Z,101817.53
2018-06-22T09:49:41.273Z,101828.05
2018-06-22T09:52:10.389Z,101836.77
2018-06-22T09:54:39.490Z,101831.13
2018-06-22T09:57:08.614Z,101835.48
2018-06-22T09:59:37.701Z,101832.81
2018-06-22T10:02:06.843Z,101832.84
2018-06-22T10:04:35.973Z,101843.33
2018-06-22T10:07:05.115Z,101842.91
2018-06-22T10:09:34.229Z,101839.87
2018-06-22T10:12:03.426Z,101846.38
2018-06-22T10:14:32.552Z,101830.23
2018-06-22T10:17:01.673Z,101842.50
2018-06-22T10:19:30.857Z,101843.37
2018-06-22T10:22:00.006Z,101846.83
2018-06-22T10:24:29.163Z,101839.00
2018-06-22T10:26:58.326Z,101838.56
2018-06-22T10:29:27.402Z,101839.42
2018-06-22T10:31:56.493Z,101838.52
2018-06-22T10:34:25.575Z,101844.61
2018-06-22T10:36:54.661Z,101840.23
2018-06-22T10:39:23.789Z,101845.05
2018-06-22T10:41:52.921Z,101836.83
2018-06-22T10:44:22.065Z,101845.11
2018-06-22T10:46:51.197Z,101845.97
2018-06-22T10:49:20.297Z,101844.66
2018-06-22T10:51:49.431Z,101839.42
2018-06-22T10:54:18.542Z,101844.64
2018-06-22T10:56:47.649Z,101843.80
2018-06-22T10:59:16.781Z,101845.08
2018-06-22T11:01:45.930Z,101852.93
2018-06-22T11:04:15.073Z,101852.06
2018-06-22T11:06:44.171Z,101853.38
2018-06-22T11:09:13.285Z,101852.50
2018-06-22T11:11:42.385Z,101854.70
2018-06-22T11:14:11.850Z,101853.36
2018-06-22T11:16:41.077Z,101854.20
2018-06-22T11:19:10.260Z,101856.33
2018-06-22T11:21:39.389Z,101849.73
2018-06-22T11:24:08.575Z,101851.89
2018-06-22T11:26:37.660Z,101846.91
2018-06-22T11:29:06.851Z,101845.98
2018-06-22T11:31:35.944Z,101853.09
2018-06-22T11:34:05.030Z,101851.67
2018-06-22T11:36:34.161Z,101858.16
2018-06-22T11:39:04.310Z,101853.00
2018-06-22T11:41:33.385Z,101853.28
2018-06-22T11:44:02.562Z,101844.48
2018-06-22T11:46:31.658Z,101850.86
2018-06-22T11:49:00.802Z,101842.58
2018-06-22T11:51:29.985Z,101852.38
2018-06-22T11:53:59.170Z,101859.69
2018-06-22T11:56:28.297Z,101852.15
2018-06-22T11:58:57.405Z,101839.80
2018-06-22T12:01:26.481Z,101845.95
2018-06-22T12:03:55.621Z,101853.90
2018-06-22T12:06:24.744Z,101864.00
2018-06-22T12:08:53.869Z,101859.20
2018-06-22T12:11:22.996Z,101849.58
2018-06-22T12:13:52.167Z,101849.94
2018-06-22T12:16:21.267Z,101850.75
2018-06-22T12:18:51.409Z,101850.61
2018-06-22T12:21:20.509Z,101848.01
2018-06-22T12:23:49.593Z,101857.13
2018-06-22T12:26:18.704Z,101846.59
2018-06-22T12:28:47.821Z,101848.38
2018-06-22T12:31:16.951Z,101845.03
2018-06-22T12:33:46.117Z,101857.75
2018-06-22T12:36:15.205Z,101859.66
2018-06-22T12:38:44.314Z,101861.83
2018-06-22T12:41:13.421Z,101854.92
2018-06-22T12:43:42.513Z,101862.77
2018-06-22T12:46:11.597Z,101858.83
2018-06-22T12:48:40.705Z,101869.69
2018-06-22T12:51:09.801Z,101863.14
2018-06-22T12:53:38.932Z,101863.05
2018-06-22T12:56:08.277Z,101860.74
2018-06-22T12:58:37.807Z,101858.84
2018-06-22T13:01:06.941Z,101865.93
2018-06-22T13:03:36.509Z,101858.69
2018-06-22T13:06:05.725Z,101856.63
2018-06-22T13:08:34.805Z,101859.47
2018-06-22T13:11:03.914Z,101855.91
2018-06-22T13:13:33.035Z,101847.45
2018-06-22T13:16:02.129Z,101852.20
2018-06-22T13:18:31.251Z,101853.02
2018-06-22T13:21:00.411Z,101857.45
2018-06-22T13:23:29.549Z,101850.34
2018-06-22T13:25:58.653Z,101846.72
2018-06-22T13:28:27.807Z,101840.13
2018-06-22T13:30:56.931Z,101843.48
2018-06-22T13:33:26.013Z,101849.11
2018-06-22T13:35:55.097Z,101843.16
2018-06-22T13:38:24.201Z,101846.73
2018-06-22T13:40:53.323Z,101848.88
2018-06-22T13:43:22.437Z,101849.03
2018-06-22T13:45:51.537Z,101857.94
2018-06-22T13:48:20.648Z,101853.27
2018-06-22T13:50:49.759Z,101859.41
2018-06-22T13:53:18.864Z,101861.17
2018-06-22T13:55:47.982Z,101862.00
2018-06-22T13:58:17.097Z,101862.76
2018-06-22T14:00:46.193Z,101864.86
2018-06-22T14:03:18.829Z,101858.68
2018-06-22T14:05:53.335Z,101860.78
2018-06-22T14:08:22.425Z,101865.47
2018-06-22T14:10:51.558Z,101860.37
2018-06-22T14:13:21.296Z,101862.94
2018-06-22T14:15:50.426Z,101866.44
2018-06-22T14:18:19.521Z,101872.70
2018-06-22T14:20:48.641Z,101869.38
2018-06-22T14:23:17.730Z,101865.91
2018-06-22T14:25:46.837Z,101871.16
2018-06-22T14:28:15.932Z,101875.16
2018-06-22T14:30:45.093Z,101874.31
2018-06-22T14:33:14.113Z,101881.48
2018-06-22T14:35:43.213Z,101882.24
2018-06-22T14:38:12.331Z,101871.36
2018-06-22T14:40:41.408Z,101882.27
2018-06-22T14:43:10.574Z,101874.72
2018-06-22T14:45:39.659Z,101863.77
2018-06-22T14:48:08.816Z,101858.16
2018-06-22T14:50:37.919Z,101853.27
2018-06-22T14:53:12.274Z,101859.61
2018-06-22T14:55:46.553Z,101862.16
2018-06-22T14:58:20.849Z,101856.33
2018-06-22T15:01:07.221Z,101860.87
2018-06-22T15:03:41.724Z,101852.94
2018-06-22T15:06:16.280Z,101868.95
2018-06-22T15:08:45.425Z,101858.03
2018-06-22T15:11:14.539Z,101858.00
2018-06-22T15:13:43.657Z,101854.73
2018-06-22T15:16:12.745Z,101852.38
2018-06-22T15:18:41.846Z,101857.59
2018-06-22T15:21:10.973Z,101857.55
2018-06-22T15:23:40.121Z,101859.98
2018-06-22T15:26:09.257Z,101859.58
2018-06-22T15:28:38.368Z,101872.47
2018-06-22T15:31:07.597Z,101871.97
2018-06-22T15:33:41.966Z,101865.03
2018-06-22T15:36:16.413Z,101869.25
2018-06-22T15:38:50.817Z,101871.50
2018-06-22T15:41:25.125Z,101873.81
2018-06-22T15:43:59.610Z,101862.91
2018-06-22T15:46:33.981Z,101869.77
2018-06-22T15:51:10.897Z,101858.89
2018-06-22T15:53:46.401Z,101860.05
2018-06-22T15:56:15.499Z,101860.36
2018-06-22T15:58:44.604Z,101865.16
2018-06-22T16:01:13.709Z,101853.77
2018-06-22T16:03:48.208Z,101857.99
2018-06-22T16:06:17.393Z,101858.23
2018-06-22T16:08:46.723Z,101857.24
2018-06-22T16:11:15.864Z,101848.44
2018-06-22T16:13:50.314Z,101865.56
2018-06-22T16:16:24.760Z,101854.59
2018-06-22T16:18:59.265Z,101851.09
2018-06-22T16:21:33.767Z,101852.96
2018-06-22T16:24:08.257Z,101861.14
2018-06-22T16:26:42.570Z,101855.53
2018-06-22T16:29:11.941Z,101866.55
2018-06-22T16:31:41.069Z,101868.32
2018-06-22T16:34:10.241Z,101874.02
2018-06-22T16:36:39.325Z,101873.74
2018-06-22T16:39:10.780Z,101876.47
2018-06-22T16:41:40.011Z,101874.22
2018-06-22T16:44:09.533Z,101875.14
2018-06-22T16:46:38.634Z,101872.62
2018-06-22T16:49:07.774Z,101881.25
2018-06-22T16:51:36.873Z,101882.39
2018-06-22T16:54:05.969Z,101872.74
2018-06-22T16:56:35.097Z,101883.45
2018-06-22T16:59:04.983Z,101876.94
2018-06-22T17:01:34.134Z,101876.66
2018-06-22T17:04:03.237Z,101892.61
2018-06-22T17:06:37.489Z,101885.96
2018-06-22T17:09:13.647Z,101882.38
2018-06-22T17:11:47.921Z,101889.28
2018-06-22T17:14:22.310Z,101893.19
2018-06-22T17:16:56.625Z,101883.22
2018-06-22T17:19:25.734Z,101881.50
2018-06-22T17:21:54.840Z,101889.34
2018-06-22T17:24:23.958Z,101891.02
2018-06-22T17:26:53.009Z,101893.61
2018-06-22T17:29:22.105Z,101887.42
2018-06-22T17:31:51.249Z,101896.07
2018-06-22T17:34:20.370Z,101884.31
2018-06-22T17:36:49.477Z,101888.47
2018-06-22T17:39:18.589Z,101890.09
2018-06-22T17:41:47.745Z,101895.00
2018-06-22T17:44:16.937Z,101889.31
2018-06-22T17:46:46.133Z,101895.48
2018-06-22T17:49:15.258Z,101890.56
2018-06-22T17:51:44.361Z,101898.37
2018-06-22T17:54:13.491Z,101897.13
2018-06-22T17:56:42.590Z,101901.10
2018-06-22T17:59:17.129Z,101900.77
2018-06-22T18:01:51.625Z,101905.73
2018-06-22T18:04:26.053Z,101901.77
2018-06-22T18:07:59.055Z,101900.16
2018-06-22T18:10:33.525Z,101904.83
2018-06-22T18:13:02.708Z,101902.14
2018-06-22T18:15:31.797Z,101911.11
2018-06-22T18:18:00.942Z,101907.13
2018-06-22T18:20:30.104Z,101910.02
2018-06-22T18:22:59.293Z,101910.98
2018-06-22T18:25:28.334Z,101909.67
2018-06-22T18:27:57.450Z,101910.48
2018-06-22T18:30:26.633Z,101911.09
2018-06-22T18:32:55.762Z,101911.30
2018-06-22T18:35:24.858Z,101911.86
2018-06-22T18:37:53.953Z,101906.19
2018-06-22T18:40:23.043Z,101910.05
2018-06-22T18:42:52.137Z,101913.60
2018-06-22T18:45:21.245Z,101920.63
2018-06-22T18:47:50.354Z,101921.59
2018-06-22T18:50:19.505Z,101925.99
2018-06-22T18:52:53.937Z,101932.14
2018-06-22T18:56:27.785Z,101918.19
2018-06-22T18:59:02.162Z,101931.94
2018-06-22T19:01:36.489Z,101937.62
2018-06-22T19:04:05.619Z,101929.39
2018-06-22T19:06:34.942Z,101933.25
2018-06-22T19:09:05.874Z,101933.28
2018-06-22T19:11:35.024Z,101935.84
2018-06-22T19:14:04.273Z,101938.49
2018-06-22T19:16:33.405Z,101935.36
2018-06-22T19:19:02.529Z,101938.11
2018-06-22T19:21:31.663Z,101941.22
2018-06-22T19:24:00.822Z,101944.21
2018-06-22T19:26:29.968Z,101940.30
2018-06-22T19:28:59.070Z,101943.00
2018-06-22T19:31:28.180Z,101946.50
2018-06-22T19:33:57.256Z,101941.13
2018-06-22T19:36:26.350Z,101941.14
2018-06-22T19:38:55.449Z,101948.06
2018-06-22T19:41:24.569Z,101947.25
2018-06-22T19:43:58.962Z,101952.52
2018-06-22T19:46:33.249Z,101956.86
2018-06-22T19:49:07.861Z,101954.25
2018-06-22T19:51:42.074Z,101960.41
2018-06-22T19:54:11.165Z,101965.30
2018-06-22T19:56:40.261Z,101969.73
2018-06-22T19:59:09.397Z,101967.53
2018-06-22T20:01:38.529Z,101971.02
2018-06-22T20:04:07.637Z,101975.78
2018-06-22T20:06:36.757Z,101975.80
2018-06-22T20:09:08.813Z,101976.70
2018-06-22T20:11:37.957Z,101982.84
2018-06-22T20:14:07.065Z,101983.71
2018-06-22T20:16:36.226Z,101981.11
2018-06-22T20:19:05.377Z,101987.25
2018-06-22T20:21:34.484Z,101986.35
2018-06-22T20:24:03.730Z,101988.59
2018-06-22T20:26:32.826Z,102006.04
2018-06-22T20:29:01.939Z,101992.09
2018-06-22T20:31:36.446Z,101995.99
2018-06-22T20:34:11.001Z,102000.83
2018-06-22T20:36:45.274Z,102003.88
2018-06-22T20:39:19.693Z,102002.56
2018-06-22T20:41:54.017Z,102008.25
2018-06-22T20:44:28.523Z,102002.58
2018-06-22T20:47:02.898Z,102006.05
2018-06-22T20:49:37.397Z,102010.00
2018-06-22T20:52:06.833Z,102009.56
2018-06-22T20:54:35.953Z,102006.51
2018-06-22T20:57:05.182Z,102012.59
2018-06-22T20:59:34.269Z,102016.53
2018-06-22T21:02:03.509Z,102014.33
2018-06-22T21:04:32.729Z,102023.02
2018-06-22T21:07:01.878Z,102024.75
2018-06-22T21:09:31.033Z,102031.30
2018-06-22T21:12:00.157Z,102029.08
2018-06-22T21:14:29.295Z,102026.49
2018-06-22T21:16:58.383Z,102026.91
2018-06-22T21:19:27.480Z,102026.91
2018-06-22T21:22:01.720Z,102028.61
2018-06-22T21:24:30.833Z,102041.70
2018-06-22T21:27:04.965Z,102032.59
2018-06-22T21:29:39.229Z,102036.89
2018-06-22T21:32:13.605Z,102038.20
2018-06-22T21:34:48.021Z,102043.89
2018-06-22T21:37:22.504Z,102037.73
2018-06-22T21:39:51.652Z,102040.39
2018-06-22T21:42:21.619Z,102046.91
2018-06-22T21:44:51.029Z,102046.44
2018-06-22T21:47:20.135Z,102048.67
2018-06-22T21:49:49.453Z,102048.17
2018-06-22T21:52:18.533Z,102043.45
2018-06-22T21:54:47.677Z,102053.94
2018-06-22T21:57:16.767Z,102043.39
2018-06-22T21:59:45.875Z,102046.42
2018-06-22T22:02:14.961Z,102048.53
2018-06-22T22:04:44.617Z,102053.35
2018-06-22T22:07:13.713Z,102047.75
2018-06-22T22:09:43.794Z,102052.05
2018-06-22T22:12:12.932Z,102052.53
2018-06-22T22:14:42.226Z,102053.83
2018-06-22T22:17:11.413Z,102049.96
2018-06-22T22:19:40.492Z,102052.53
2018-06-22T22:22:09.669Z,102051.22
2018-06-22T22:24:38.764Z,102060.31
2018-06-22T22:27:07.909Z,102061.14
2018-06-22T22:29:37.005Z,102059.42
2018-06-22T22:32:06.202Z,102059.39
2018-06-22T22:34:35.281Z,102063.27
2018-06-22T22:37:04.417Z,102060.20
2018-06-22T22:39:33.576Z,102059.87
2018-06-22T22:42:02.673Z,102064.53
2018-06-22T22:44:31.822Z,102063.27
2018-06-22T22:47:00.973Z,102061.48
2018-06-22T22:49:30.909Z,102062.83
2018-06-22T22:52:00.043Z,102064.06
2018-06-22T22:54:29.181Z,102061.00
2018-06-22T22:56:58.313Z,102059.94
2018-06-22T22:59:27.409Z,102065.16
2018-06-22T23:01:56.516Z,102054.63
2018-06-22T23:04:25.650Z,102058.55
2018-06-22T23:06:54.773Z,102061.64
2018-06-22T23:09:23.865Z,102066.52
2018-06-22T23:11:52.993Z,102063.28
2018-06-22T23:14:22.124Z,102067.23
2018-06-22T23:16:51.410Z,102064.28
2018-06-22T23:19:20.497Z,102059.12
2018-06-22T23:21:49.628Z,102063.79
2018-06-22T23:24:18.726Z,102058.59
2018-06-22T23:26:47.846Z,102051.17
2018-06-22T23:29:16.973Z,102050.02
2018-06-22T23:31:46.077Z,102047.46
2018-06-22T23:34:15.174Z,102044.80
2018-06-22T23:36:44.298Z,102041.29
2018-06-22T23:39:13.473Z,102043.98
2018-06-22T23:41:42.496Z,102046.92
2018-06-22T23:44:11.581Z,102043.92
2018-06-22T23:46:40.713Z,102046.53
2018-06-22T23:49:09.809Z,102043.39
2018-06-22T23:51:38.953Z,102043.45
2018-06-22T23:54:08.361Z,102044.72
2018-06-22T23:56:37.450Z,102044.11
2018-06-22T23:59:06.545Z,102047.37
